Terminal Aerodrome Forecast
Issued by NWS San Angelo, TX

Home | Current Version | Previous Version | Text Only | Print | Product List | Glossary On
Versions: 1 2 3 4 5 6 7 8 9 10 11 12 13 14 15 16 17 18
000
FTUS44 KSJT 201814 AAD
TAFABI
TAF AMD
KABI 201814Z 2018/2118 21014G20KT P6SM SKC
     FM210000 18012KT P6SM SKC
     FM211500 23016G22KT P6SM BKN250=

USA.gov is the U.S. government's official web portal to all federal, state and local government web resources and services.